createdAt,value
2022-12-09T00:02:34.700Z,30.6
2022-12-09T00:07:38.295Z,30.6
2022-12-09T00:12:41.788Z,30.5
2022-12-09T00:17:44.414Z,31.2
2022-12-09T00:22:46.581Z,30.8
2022-12-09T00:27:48.905Z,30.3
2022-12-09T00:32:51.248Z,31.4
2022-12-09T00:37:53.703Z,32.6
2022-12-09T00:42:56.352Z,32.6
2022-12-09T00:47:58.973Z,31.3
2022-12-09T00:53:01.814Z,32
2022-12-09T00:58:04.464Z,31.1
2022-12-09T01:03:07.827Z,30.9
2022-12-09T01:08:11.127Z,29.3
2022-12-09T01:13:14.958Z,30.8
2022-12-09T01:18:17.398Z,29.8
2022-12-09T01:23:20.065Z,31.2
2022-12-09T01:28:22.946Z,32.3
2022-12-09T01:33:26.132Z,28.6
2022-12-09T01:38:28.311Z,31.7
2022-12-09T01:43:31.203Z,31.2
2022-12-09T01:48:33.755Z,34.2
2022-12-09T01:53:36.854Z,31
2022-12-09T01:58:39.723Z,30.4
2022-12-09T02:03:42.485Z,32.1
2022-12-09T02:08:46.630Z,31.3
2022-12-09T02:13:50.108Z,32.2
2022-12-09T02:18:53.506Z,31.4
2022-12-09T02:23:56.646Z,30.4
2022-12-09T02:28:59.287Z,29.6
2022-12-09T02:34:01.488Z,32.5
2022-12-09T02:39:04.940Z,33.3
2022-12-09T02:44:07.583Z,33.3
2022-12-09T02:54:12.732Z,33
2022-12-09T02:59:15.311Z,32.1
2022-12-09T03:04:18.670Z,31.2
2022-12-09T03:09:21.862Z,31
2022-12-09T03:14:25.396Z,31.8
2022-12-09T03:19:28.158Z,30.8
2022-12-09T03:24:31.320Z,29.2
2022-12-09T03:29:33.902Z,32.8
2022-12-09T03:34:36.497Z,29.9
2022-12-09T03:39:39.380Z,29
2022-12-09T03:44:41.455Z,30.9
2022-12-09T03:49:44.318Z,30.3
2022-12-09T03:54:47.183Z,30.3
2022-12-09T03:59:50.318Z,30.3
2022-12-09T04:04:53.795Z,28.5
2022-12-09T04:09:56.648Z,31.4
2022-12-09T04:14:59.897Z,28.3
2022-12-09T04:20:03.798Z,28.8
2022-12-09T04:25:08.214Z,27.8
2022-12-09T04:30:11.131Z,28.4
2022-12-09T04:35:15.575Z,27.8
2022-12-09T04:40:22.972Z,28.5
2022-12-09T04:45:26.780Z,26.7
2022-12-09T04:50:29.843Z,26.7
2022-12-09T04:55:32.884Z,27.3
2022-12-09T05:00:36.152Z,24.9
2022-12-09T05:05:39.398Z,26.2
2022-12-09T05:10:43.215Z,28.5
2022-12-09T05:15:47.063Z,27.1
2022-12-09T05:20:51.306Z,28.9
2022-12-09T05:25:54.450Z,32.8
2022-12-09T05:30:57.789Z,32.8
2022-12-09T05:36:01.783Z,29.7
2022-12-09T05:41:05.306Z,32.8
2022-12-09T05:46:11.565Z,30.9
2022-12-09T05:51:16.044Z,32.3
2022-12-09T05:56:19.898Z,32.6
2022-12-09T06:01:24.305Z,33.6
2022-12-09T06:06:28.413Z,33
2022-12-09T06:11:32.656Z,33.5
2022-12-09T06:16:39.745Z,34.7
2022-12-09T06:21:44.933Z,33.8
2022-12-09T06:26:48.305Z,37.4
2022-12-09T06:31:51.494Z,34.1
2022-12-09T06:36:55.453Z,46.1
2022-12-09T06:41:58.943Z,36.1
2022-12-09T06:47:02.670Z,36.4
2022-12-09T06:52:06.930Z,37.2
2022-12-09T06:57:10.363Z,38.1
2022-12-09T07:02:14.122Z,38.5
2022-12-09T07:07:18.369Z,43.7
2022-12-09T07:12:22.429Z,42.6
2022-12-09T07:17:25.501Z,43.3
2022-12-09T07:22:29.744Z,44.3
2022-12-09T07:27:33.832Z,44.7
2022-12-09T07:32:37.285Z,46.2
2022-12-09T07:37:41.375Z,49.3
2022-12-09T07:42:45.353Z,53.5
2022-12-09T07:47:49.183Z,52.6
2022-12-09T07:52:53.154Z,55
2022-12-09T07:57:57.167Z,48.2
2022-12-09T08:03:00.959Z,48.2
2022-12-09T08:08:05.375Z,49.6
2022-12-09T08:13:10.299Z,46.8
2022-12-09T08:18:14.273Z,41.2
2022-12-09T08:23:18.697Z,39.1
2022-12-09T08:28:22.642Z,39.2
2022-12-09T08:33:26.268Z,40
2022-12-09T08:38:30.288Z,43.3
2022-12-09T08:43:33.773Z,41.4
2022-12-09T08:48:37.432Z,40.2
2022-12-09T08:53:42.321Z,42.1
2022-12-09T08:58:46.017Z,34.3
2022-12-09T09:03:49.830Z,32.8
2022-12-09T09:08:53.973Z,29.3
2022-12-09T09:13:58.639Z,26.2
2022-12-09T09:19:02.156Z,26.9
2022-12-09T09:24:07.203Z,25.1
2022-12-09T09:29:11.794Z,26.7
2022-12-09T09:34:15.735Z,25.9
2022-12-09T09:39:20.122Z,28.1
2022-12-09T09:44:24.791Z,31.6
2022-12-09T09:49:28.112Z,35.2
2022-12-09T09:54:33.169Z,32.1
2022-12-09T10:04:41.438Z,27.8
2022-12-09T10:09:45.984Z,28.6
2022-12-09T10:14:50.387Z,24.1
2022-12-09T10:19:54.381Z,24.7
2022-12-09T10:24:58.889Z,25.5
2022-12-09T10:30:03.034Z,25.7
2022-12-09T10:35:08.800Z,26.1
2022-12-09T10:40:13.298Z,25.3
2022-12-09T10:45:17.762Z,28.1
2022-12-09T10:50:22.009Z,30.4
2022-12-09T10:55:27.073Z,33.5
2022-12-09T11:00:34.712Z,34.8
2022-12-09T11:05:38.437Z,37.6
2022-12-09T11:10:42.256Z,38.7
2022-12-09T11:15:47.821Z,40.4
2022-12-09T11:20:51.695Z,43.3
2022-12-09T11:25:55.665Z,46.3
2022-12-09T11:41:09.511Z,48
2022-12-09T11:46:11.682Z,52.7
2022-12-09T11:51:14.130Z,53.7
2022-12-09T11:56:16.195Z,54.6
2022-12-09T12:01:18.600Z,57.9
2022-12-09T12:06:20.876Z,61.9
2022-12-09T12:11:23.257Z,65.7
2022-12-09T12:16:26.944Z,64.8
2022-12-09T12:21:34.547Z,62.5
2022-12-09T12:26:36.680Z,71.1
2022-12-09T12:31:40.173Z,72.5
2022-12-09T12:36:42.754Z,71.8
2022-12-09T12:41:44.929Z,73.5
2022-12-09T12:46:47.060Z,77.5
2022-12-09T12:51:53.965Z,77.9
2022-12-09T12:56:56.370Z,81.6
2022-12-09T13:01:58.623Z,76.3
2022-12-09T13:07:01.222Z,76.2
2022-12-09T13:12:03.427Z,73.5
2022-12-09T13:17:05.664Z,67.4
2022-12-09T13:22:08.021Z,73
2022-12-09T13:27:10.098Z,69.2
2022-12-09T13:32:12.272Z,70.9
2022-12-09T13:37:14.516Z,73.2
2022-12-09T13:42:16.958Z,76.3
2022-12-09T13:47:19.031Z,76.2
2022-12-09T13:52:21.390Z,73.3
2022-12-09T13:57:23.485Z,72.4
2022-12-09T14:02:25.595Z,76.8
2022-12-09T14:07:33.673Z,73.3
2022-12-09T14:12:31.516Z,76.8
2022-12-09T14:17:33.767Z,78.9
2022-12-09T14:22:36.632Z,81.1
2022-12-09T14:27:38.922Z,75.6
2022-12-09T14:32:41.359Z,78.8
2022-12-09T14:37:44.370Z,74.7
2022-12-09T14:42:46.773Z,70.6
2022-12-09T14:47:48.928Z,74.9
2022-12-09T14:52:51.280Z,69.8
2022-12-09T14:57:52.131Z,72.8
2022-12-09T15:03:23.396Z,71.3
2022-12-09T15:07:56.562Z,71
2022-12-09T15:12:59.190Z,75
2022-12-09T15:18:01.348Z,69.3
2022-12-09T15:23:03.600Z,64.3
2022-12-09T15:28:06.147Z,64
2022-12-09T15:33:08.536Z,61.3
2022-12-09T15:38:10.700Z,60.1
2022-12-09T15:43:13.111Z,62.7
2022-12-09T15:48:15.305Z,63.5
2022-12-09T15:53:17.675Z,63.3
2022-12-09T15:58:19.811Z,61.8
2022-12-09T16:03:22.060Z,60.4
2022-12-09T16:08:24.330Z,58.4
2022-12-09T16:13:27.050Z,61.4
2022-12-09T16:18:27.841Z,61.4
2022-12-09T16:23:30.188Z,63.1
2022-12-09T16:28:33.360Z,61.2
2022-12-09T16:33:35.426Z,65.8
2022-12-09T16:38:37.800Z,67.8
2022-12-09T16:43:40.597Z,60.7
2022-12-09T16:48:43.628Z,58.2
2022-12-09T16:53:45.827Z,56
2022-12-09T16:58:47.858Z,59.2
2022-12-09T17:03:49.935Z,56.3
2022-12-09T17:08:52.027Z,62.1
2022-12-09T17:13:54.065Z,57.1
2022-12-09T17:18:56.099Z,58.8
2022-12-09T17:23:59.140Z,60.6
2022-12-09T17:29:02.207Z,61.3
2022-12-09T17:34:04.921Z,63.5
2022-12-09T17:39:07.365Z,60.9
2022-12-09T17:44:10.359Z,56.6
2022-12-09T17:49:13.006Z,56.7
2022-12-09T17:54:15.955Z,52.2
2022-12-09T17:59:18.510Z,95.9
2022-12-09T18:04:19.497Z,52.8
2022-12-09T18:09:22.373Z,51.7
2022-12-09T18:14:24.488Z,54.2
2022-12-09T18:19:26.764Z,56.1
2022-12-09T18:24:28.885Z,51.9
2022-12-09T18:29:30.919Z,52.6
2022-12-09T18:34:34.338Z,47.9
2022-12-09T18:39:36.597Z,50.6
2022-12-09T18:44:38.805Z,94.5
2022-12-09T18:49:39.740Z,98.8
2022-12-09T18:54:40.416Z,50.8
2022-12-09T18:59:42.946Z,47.2
2022-12-09T19:04:45.257Z,44.2
2022-12-09T19:09:47.350Z,46.7
2022-12-09T19:14:49.511Z,44.6
2022-12-09T19:19:51.587Z,44.9
2022-12-09T19:24:57.502Z,43
2022-12-09T19:30:00.486Z,44.2
2022-12-09T19:35:03.049Z,40.9
2022-12-09T19:40:06.241Z,39.6
2022-12-09T19:45:14.108Z,38.6
2022-12-09T19:50:17.241Z,36.5
2022-12-09T19:55:19.402Z,32.2
2022-12-09T20:00:21.467Z,30.9
2022-12-09T20:05:23.717Z,28.2
2022-12-09T20:10:26.504Z,30.8
2022-12-09T20:15:28.537Z,32
2022-12-09T20:20:30.608Z,25
2022-12-09T20:25:32.862Z,32
2022-12-09T20:30:34.989Z,25.8
2022-12-09T20:35:37.005Z,28
2022-12-09T20:40:40.867Z,27
2022-12-09T20:45:43.824Z,26.2
2022-12-09T20:50:46.500Z,26.6
2022-12-09T20:55:48.717Z,27.5
2022-12-09T21:00:50.672Z,23.1
2022-12-09T21:05:53.055Z,25.5
2022-12-09T21:10:55.282Z,25
2022-12-09T21:15:57.416Z,23.5
2022-12-09T21:21:00.153Z,27.8
2022-12-09T21:26:02.476Z,25.4
2022-12-09T21:31:04.556Z,20.8
2022-12-09T21:36:07.036Z,25
2022-12-09T21:41:09.022Z,22.4
2022-12-09T21:46:11.380Z,21.6
2022-12-09T21:51:14.008Z,27
2022-12-09T21:56:16.120Z,22.6
2022-12-09T22:01:18.474Z,22.4
2022-12-09T22:06:20.809Z,22.4
2022-12-09T22:11:23.312Z,21.1
2022-12-09T22:16:25.331Z,22.9
2022-12-09T22:21:28.467Z,24.4
2022-12-09T22:26:33.500Z,23.8
2022-12-09T22:31:35.972Z,24
2022-12-09T22:36:38.268Z,24.6
2022-12-09T22:41:40.579Z,25.3
2022-12-09T22:46:42.751Z,27.2
2022-12-09T22:51:45.205Z,22.8
2022-12-09T22:56:47.290Z,26.7
2022-12-09T23:01:49.293Z,27.2
2022-12-09T23:06:51.592Z,24.8
2022-12-09T23:11:53.678Z,24.3
2022-12-09T23:16:55.696Z,41.1
2022-12-09T23:21:56.175Z,22.9
2022-12-09T23:26:58.185Z,28.1
2022-12-09T23:32:00.253Z,25.8
2022-12-09T23:37:02.305Z,27.1
2022-12-09T23:42:04.382Z,27.2
2022-12-09T23:47:06.296Z,27.2
2022-12-09T23:52:08.507Z,29.1
2022-12-09T23:57:10.571Z,27.8
